createdAt,value
2022-09-11T00:00:42.811Z,16.46
2022-09-11T00:01:42.247Z,16.32
2022-09-11T00:02:42.242Z,16.29
2022-09-11T00:03:42.353Z,16.39
2022-09-11T00:04:42.183Z,16.32
2022-09-11T00:05:42.154Z,16.33
2022-09-11T00:06:44.156Z,16.50
2022-09-11T00:07:42.130Z,16.33
2022-09-11T00:08:42.468Z,16.35
2022-09-11T00:09:42.177Z,16.36
2022-09-11T00:10:42.096Z,16.29
2022-09-11T00:11:42.089Z,16.32
2022-09-11T00:12:42.098Z,16.38
2022-09-11T00:13:42.142Z,16.39
2022-09-11T00:14:42.052Z,16.39
2022-09-11T00:15:42.062Z,16.41
2022-09-11T00:16:42.029Z,16.39
2022-09-11T00:17:42.031Z,16.42
2022-09-11T00:18:42.013Z,16.32
2022-09-11T00:19:42.040Z,16.29
2022-09-11T00:20:42.005Z,16.39
2022-09-11T00:21:41.998Z,16.39
2022-09-11T00:22:41.967Z,16.43
2022-09-11T00:23:43.090Z,16.41
2022-09-11T00:24:41.945Z,16.38
2022-09-11T00:25:41.929Z,16.43
2022-09-11T00:26:41.946Z,16.39
2022-09-11T00:27:41.907Z,16.36
2022-09-11T00:28:41.952Z,16.32
2022-09-11T00:29:41.889Z,16.33
2022-09-11T00:30:41.895Z,16.29
2022-09-11T00:31:42.002Z,16.43
2022-09-11T00:32:41.856Z,16.35
2022-09-11T00:33:41.994Z,16.32
2022-09-11T00:34:41.882Z,16.32
2022-09-11T00:35:41.835Z,16.38
2022-09-11T00:36:41.906Z,16.28
2022-09-11T00:37:41.818Z,16.33
2022-09-11T00:38:41.807Z,16.31
2022-09-11T00:39:41.816Z,16.29
2022-09-11T00:40:41.775Z,16.31
2022-09-11T00:41:41.753Z,16.31
2022-09-11T00:42:41.759Z,16.29
2022-09-11T00:43:41.840Z,16.26
2022-09-11T00:44:41.737Z,16.31
2022-09-11T00:45:41.762Z,16.32
2022-09-11T00:46:41.702Z,16.31
2022-09-11T00:47:41.680Z,16.33
2022-09-11T00:48:41.695Z,16.26
2022-09-11T00:49:42.134Z,16.28
2022-09-11T00:50:41.649Z,16.24
2022-09-11T00:51:41.638Z,16.26
2022-09-11T00:52:41.628Z,16.31
2022-09-11T00:53:41.796Z,16.28
2022-09-11T00:54:41.615Z,16.29
2022-09-11T00:55:41.594Z,16.28
2022-09-11T00:56:41.583Z,16.35
2022-09-11T00:57:41.613Z,16.33
2022-09-11T00:58:41.563Z,16.36
2022-09-11T00:59:41.573Z,16.33
2022-09-11T01:00:41.594Z,16.29
2022-09-11T01:01:41.569Z,16.41
2022-09-11T01:02:41.520Z,16.38
2022-09-11T01:03:44.417Z,16.35
2022-09-11T01:04:41.492Z,16.36
2022-09-11T01:05:41.503Z,16.26
2022-09-11T01:06:41.477Z,16.33
2022-09-11T01:07:41.459Z,16.33
2022-09-11T01:08:41.464Z,16.31
2022-09-11T01:09:41.442Z,16.36
2022-09-11T01:10:41.440Z,16.32
2022-09-11T01:11:41.417Z,16.39
2022-09-11T01:12:41.407Z,16.41
2022-09-11T01:13:41.452Z,16.49
2022-09-11T01:14:41.466Z,16.47
2022-09-11T01:15:41.371Z,16.41
2022-09-11T01:16:41.401Z,16.54
2022-09-11T01:17:41.343Z,16.54
2022-09-11T01:18:41.379Z,16.56
2022-09-11T01:19:41.328Z,16.54
2022-09-11T01:20:41.326Z,16.60
2022-09-11T01:21:41.298Z,16.65
2022-09-11T01:22:41.300Z,16.64
2022-09-11T01:23:41.489Z,16.57
2022-09-11T01:24:42.748Z,16.74
2022-09-11T01:25:41.265Z,16.64
2022-09-11T01:26:41.245Z,16.60
2022-09-11T01:27:41.321Z,16.57
2022-09-11T01:28:41.231Z,16.64
2022-09-11T01:29:42.821Z,16.65
2022-09-11T01:30:41.204Z,16.57
2022-09-11T01:31:41.285Z,16.60
2022-09-11T01:32:41.198Z,16.53
2022-09-11T01:33:41.245Z,16.53
2022-09-11T01:34:41.155Z,16.53
2022-09-11T01:35:41.143Z,16.51
2022-09-11T01:36:41.149Z,16.47
2022-09-11T01:37:41.124Z,16.51
2022-09-11T01:38:41.615Z,16.51
2022-09-11T01:39:41.120Z,16.43
2022-09-11T01:40:41.088Z,16.46
2022-09-11T01:41:41.092Z,16.60
2022-09-11T01:42:41.069Z,16.42
2022-09-11T01:43:41.358Z,16.42
2022-09-11T01:44:41.205Z,16.41
2022-09-11T01:45:41.092Z,16.42
2022-09-11T01:46:41.031Z,16.39
2022-09-11T01:47:41.030Z,16.43
2022-09-11T01:48:41.175Z,16.39
2022-09-11T01:49:40.987Z,16.29
2022-09-11T01:50:40.978Z,16.41
2022-09-11T01:51:40.965Z,16.31
2022-09-11T01:52:40.954Z,16.35
2022-09-11T01:53:41.007Z,16.31
2022-09-11T01:54:40.929Z,16.35
2022-09-11T01:55:40.924Z,16.35
2022-09-11T01:56:40.912Z,16.31
2022-09-11T01:57:40.895Z,16.26
2022-09-11T01:58:40.912Z,16.33
2022-09-11T01:59:40.876Z,16.42
2022-09-11T02:00:40.901Z,16.47
2022-09-11T02:01:41.037Z,16.43
2022-09-11T02:02:40.845Z,16.35
2022-09-11T02:03:40.973Z,16.31
2022-09-11T02:04:43.543Z,16.33
2022-09-11T02:05:40.925Z,16.24
2022-09-11T02:06:40.801Z,16.28
2022-09-11T02:07:40.792Z,16.36
2022-09-11T02:08:40.773Z,16.24
2022-09-11T02:09:40.766Z,16.31
2022-09-11T02:10:40.769Z,16.15
2022-09-11T02:11:40.777Z,16.16
2022-09-11T02:12:40.735Z,16.16
2022-09-11T02:13:40.813Z,16.23
2022-09-11T02:14:40.718Z,16.12
2022-09-11T02:15:41.556Z,16.12
2022-09-11T02:16:40.686Z,16.08
2022-09-11T02:17:40.672Z,16.09
2022-09-11T02:18:40.791Z,16.09
2022-09-11T02:19:40.651Z,16.09
2022-09-11T02:20:40.678Z,16.02
2022-09-11T02:21:40.636Z,15.95
2022-09-11T02:22:40.615Z,15.98
2022-09-11T02:23:40.689Z,15.97
2022-09-11T02:24:40.598Z,15.91
2022-09-11T02:25:40.607Z,15.94
2022-09-11T02:26:40.577Z,15.94
2022-09-11T02:27:40.557Z,15.91
2022-09-11T02:28:40.552Z,15.80
2022-09-11T02:29:40.542Z,15.83
2022-09-11T02:30:40.555Z,15.70
2022-09-11T02:31:40.566Z,15.68
2022-09-11T02:32:40.508Z,15.72
2022-09-11T02:33:40.540Z,15.61
2022-09-11T02:34:40.503Z,15.67
2022-09-11T02:35:40.731Z,15.59
2022-09-11T02:36:40.505Z,15.61
2022-09-11T02:37:40.451Z,15.57
2022-09-11T02:38:40.454Z,15.51
2022-09-11T02:39:40.711Z,15.52
2022-09-11T02:40:40.414Z,15.51
2022-09-11T02:41:40.407Z,15.49
2022-09-11T02:42:40.418Z,15.47
2022-09-11T02:43:40.401Z,15.54
2022-09-11T02:44:40.378Z,15.51
2022-09-11T02:45:40.389Z,15.52
2022-09-11T02:46:40.355Z,15.54
2022-09-11T02:47:40.363Z,15.51
2022-09-11T02:48:40.329Z,15.55
2022-09-11T02:49:40.317Z,15.43
2022-09-11T02:50:40.405Z,15.44
2022-09-11T02:51:40.293Z,15.40
2022-09-11T02:52:40.300Z,15.25
2022-09-11T02:53:43.020Z,15.29
2022-09-11T02:54:40.584Z,15.36
2022-09-11T02:55:40.249Z,15.36
2022-09-11T02:56:40.236Z,15.37
2022-09-11T02:57:40.229Z,15.46
2022-09-11T02:58:40.251Z,15.40
2022-09-11T02:59:40.222Z,15.40
2022-09-11T03:00:40.243Z,15.49
2022-09-11T03:01:40.244Z,15.44
2022-09-11T03:02:40.170Z,15.57
2022-09-11T03:03:40.274Z,15.54
2022-09-11T03:04:40.153Z,15.51
2022-09-11T03:05:40.137Z,15.55
2022-09-11T03:06:40.144Z,15.59
2022-09-11T03:07:40.383Z,15.58
2022-09-11T03:08:40.121Z,15.65
2022-09-11T03:09:40.094Z,15.68
2022-09-11T03:10:40.105Z,15.72
2022-09-11T03:11:40.111Z,15.72
2022-09-11T03:12:40.073Z,15.72
2022-09-11T03:13:40.110Z,15.70
2022-09-11T03:14:40.031Z,15.68
2022-09-11T03:15:40.046Z,15.75
2022-09-11T03:16:40.046Z,15.77
2022-09-11T03:17:40.000Z,15.79
2022-09-11T03:18:39.991Z,15.80
2022-09-11T03:19:39.996Z,15.80
2022-09-11T03:20:39.973Z,15.82
2022-09-11T03:21:39.956Z,15.80
2022-09-11T03:22:39.971Z,15.80
2022-09-11T03:23:40.002Z,15.77
2022-09-11T03:24:39.959Z,15.80
2022-09-11T03:25:39.911Z,15.79
2022-09-11T03:26:40.043Z,15.79
2022-09-11T03:27:39.895Z,15.82
2022-09-11T03:28:39.891Z,15.80
2022-09-11T03:29:40.909Z,15.73
2022-09-11T03:30:39.858Z,15.73
2022-09-11T03:31:39.926Z,15.73
2022-09-11T03:32:39.832Z,15.64
2022-09-11T03:33:39.941Z,15.70
2022-09-11T03:34:39.834Z,15.76
2022-09-11T03:35:39.797Z,15.73
2022-09-11T03:36:39.791Z,15.72
2022-09-11T03:38:30.143Z,15.73
2022-09-11T03:39:31.637Z,15.77
2022-09-11T03:40:30.141Z,15.76
2022-09-11T03:41:30.114Z,15.76
2022-09-11T03:42:30.098Z,15.70
2022-09-11T03:43:30.089Z,15.75
2022-09-11T03:44:30.100Z,15.72
2022-09-11T03:45:30.092Z,15.76
2022-09-11T03:46:30.055Z,15.64
2022-09-11T03:47:30.044Z,15.67
2022-09-11T03:48:30.047Z,15.72
2022-09-11T03:49:30.023Z,15.67
2022-09-11T03:50:30.282Z,15.49
2022-09-11T03:51:30.001Z,15.55
2022-09-11T03:52:29.990Z,15.58
2022-09-11T03:53:29.999Z,15.49
2022-09-11T03:54:29.977Z,15.54
2022-09-11T03:55:29.959Z,15.51
2022-09-11T03:56:29.961Z,15.51
2022-09-11T03:57:29.936Z,15.52
2022-09-11T03:58:29.923Z,15.52
2022-09-11T03:59:29.935Z,15.59
2022-09-11T04:00:29.897Z,15.57
2022-09-11T04:01:29.889Z,15.57
2022-09-11T04:02:29.894Z,15.57
2022-09-11T04:03:29.878Z,15.54
2022-09-11T04:04:29.873Z,15.55
2022-09-11T04:05:29.923Z,15.49
2022-09-11T04:06:29.833Z,15.49
2022-09-11T04:07:29.819Z,15.54
2022-09-11T04:08:29.813Z,15.43
2022-09-11T04:09:29.813Z,15.49
2022-09-11T04:10:29.792Z,15.54
2022-09-11T04:11:30.954Z,15.51
2022-09-11T04:12:29.785Z,15.55
2022-09-11T04:13:29.753Z,15.49
2022-09-11T04:14:29.769Z,15.49
2022-09-11T04:15:29.736Z,15.54
2022-09-11T04:16:29.956Z,15.54
2022-09-11T04:17:29.726Z,15.58
2022-09-11T04:18:29.706Z,15.51
2022-09-11T04:19:29.687Z,15.59
2022-09-11T04:20:29.953Z,15.52
2022-09-11T04:21:29.665Z,15.57
2022-09-11T04:22:30.423Z,15.51
2022-09-11T04:23:29.644Z,15.52
2022-09-11T04:24:30.635Z,15.51
2022-09-11T04:25:29.656Z,15.57
2022-09-11T04:26:29.616Z,15.51
2022-09-11T04:27:29.599Z,15.55
2022-09-11T04:28:29.605Z,15.59
2022-09-11T04:29:29.604Z,15.64
2022-09-11T04:30:29.580Z,15.62
2022-09-11T04:31:29.638Z,15.59
2022-09-11T04:32:29.538Z,15.52
2022-09-11T04:33:29.548Z,15.54
2022-09-11T04:34:29.521Z,15.57
2022-09-11T04:35:29.529Z,15.58
2022-09-11T04:36:29.498Z,15.64
2022-09-11T04:37:29.548Z,15.72
2022-09-11T04:38:29.478Z,15.72
2022-09-11T04:39:29.488Z,15.75
2022-09-11T04:40:29.465Z,15.76
2022-09-11T04:41:29.443Z,15.70
2022-09-11T04:42:29.432Z,15.75
2022-09-11T04:43:29.423Z,15.73
2022-09-11T04:44:29.453Z,15.77
2022-09-11T04:45:31.437Z,15.80
2022-09-11T04:46:29.383Z,15.82
2022-09-11T04:47:29.374Z,15.88
2022-09-11T04:48:29.363Z,15.77
2022-09-11T04:49:29.374Z,15.80
2022-09-11T04:50:29.373Z,15.75
2022-09-11T04:51:29.379Z,15.82
2022-09-11T04:52:29.324Z,15.70
2022-09-11T04:53:29.307Z,15.75
2022-09-11T04:54:29.388Z,15.70
2022-09-11T04:55:29.490Z,15.77
2022-09-11T04:56:29.307Z,15.73
2022-09-11T04:57:29.260Z,15.80
2022-09-11T04:58:29.255Z,15.82
2022-09-11T04:59:29.244Z,15.73
2022-09-11T05:00:29.276Z,15.83
2022-09-11T05:01:29.242Z,15.80
2022-09-11T05:02:29.353Z,15.77
2022-09-11T05:03:29.217Z,15.88
2022-09-11T05:04:29.233Z,15.94
2022-09-11T05:05:29.232Z,15.91
2022-09-11T05:06:29.192Z,15.95
2022-09-11T05:07:29.966Z,15.90
2022-09-11T05:08:29.157Z,15.94
2022-09-11T05:09:29.202Z,15.92
2022-09-11T05:10:29.224Z,16.00
2022-09-11T05:11:29.137Z,15.95
2022-09-11T05:12:29.117Z,15.90
2022-09-11T05:13:33.085Z,15.95
2022-09-11T05:14:30.084Z,15.97
2022-09-11T05:15:29.105Z,16.00
2022-09-11T05:16:29.124Z,16.01
2022-09-11T05:17:29.050Z,15.98
2022-09-11T05:18:29.022Z,15.94
2022-09-11T05:19:29.019Z,16.00
2022-09-11T05:20:29.016Z,16.00
2022-09-11T05:21:28.996Z,16.05
2022-09-11T05:22:28.984Z,16.05
2022-09-11T05:23:28.973Z,15.98
2022-09-11T05:24:28.969Z,16.05
2022-09-11T05:25:28.989Z,16.08
2022-09-11T05:26:28.936Z,16.09
2022-09-11T05:27:28.928Z,16.10
2022-09-11T05:28:28.949Z,16.16
2022-09-11T05:29:32.262Z,16.24
2022-09-11T05:30:31.398Z,16.24
2022-09-11T05:31:28.983Z,16.26
2022-09-11T05:32:29.031Z,16.31
2022-09-11T05:33:28.861Z,16.33
2022-09-11T05:34:28.844Z,16.26
2022-09-11T05:35:32.224Z,16.32
2022-09-11T05:36:28.826Z,16.36
2022-09-11T05:37:28.818Z,16.35
2022-09-11T05:38:28.810Z,16.42
2022-09-11T05:39:28.790Z,16.49
2022-09-11T05:40:28.803Z,16.47
2022-09-11T05:41:28.773Z,16.42
2022-09-11T05:42:28.767Z,16.47
2022-09-11T05:43:28.847Z,16.41
2022-09-11T05:44:28.739Z,16.38
2022-09-11T05:45:28.793Z,16.50
2022-09-11T05:46:28.717Z,16.54
2022-09-11T05:47:28.760Z,16.64
2022-09-11T05:48:28.723Z,16.72
2022-09-11T05:49:28.811Z,16.60
2022-09-11T05:50:28.753Z,16.74
2022-09-11T05:51:28.670Z,16.58
2022-09-11T05:52:28.687Z,16.58
2022-09-11T05:53:28.644Z,16.42
2022-09-11T05:54:28.626Z,16.53
2022-09-11T05:55:28.650Z,16.50
2022-09-11T05:56:28.609Z,16.50
2022-09-11T05:57:28.601Z,16.42
2022-09-11T05:58:28.581Z,16.43
2022-09-11T05:59:28.574Z,16.42
2022-09-11T06:00:28.876Z,16.43
2022-09-11T06:01:28.593Z,16.49
2022-09-11T06:02:28.617Z,16.42
2022-09-11T06:03:28.528Z,16.39
2022-09-11T06:04:28.810Z,16.23
2022-09-11T06:05:28.524Z,16.28
2022-09-11T06:06:28.495Z,16.29
2022-09-11T06:07:28.494Z,16.26
2022-09-11T06:08:28.473Z,16.31
2022-09-11T06:09:28.478Z,16.39
2022-09-11T06:10:28.451Z,16.33
2022-09-11T06:11:28.434Z,16.41
2022-09-11T06:12:28.429Z,16.42
2022-09-11T06:13:28.512Z,16.53
2022-09-11T06:14:28.408Z,16.50
2022-09-11T06:15:45.784Z,16.68
2022-09-11T06:16:29.401Z,16.65
2022-09-11T06:17:28.394Z,16.72
2022-09-11T06:18:28.368Z,16.72
2022-09-11T06:19:28.443Z,16.74
2022-09-11T06:20:28.354Z,16.87
2022-09-11T06:21:28.343Z,16.96
2022-09-11T06:22:28.322Z,16.97
2022-09-11T06:23:28.318Z,17.01
2022-09-11T06:24:28.308Z,17.05
2022-09-11T06:25:28.302Z,17.15
2022-09-11T06:26:28.274Z,17.14
2022-09-11T06:27:28.262Z,17.22
2022-09-11T06:28:28.277Z,17.30
2022-09-11T06:29:28.239Z,17.29
2022-09-11T06:30:28.429Z,17.30
2022-09-11T06:31:28.219Z,17.29
2022-09-11T06:32:28.240Z,17.34
2022-09-11T06:33:28.215Z,17.29
2022-09-11T06:34:28.490Z,17.29
2022-09-11T06:35:28.181Z,17.27
2022-09-11T06:36:28.176Z,17.31
2022-09-11T06:37:28.149Z,17.31
2022-09-11T06:38:28.152Z,17.16
2022-09-11T06:39:28.128Z,17.14
2022-09-11T06:40:28.111Z,17.16
2022-09-11T06:41:28.128Z,17.16
2022-09-11T06:42:28.137Z,17.01
2022-09-11T06:43:28.081Z,17.04
2022-09-11T06:44:28.072Z,17.01
2022-09-11T06:45:28.929Z,17.06
2022-09-11T06:46:28.050Z,16.99
2022-09-11T06:47:28.732Z,16.93
2022-09-11T06:48:28.022Z,16.84
2022-09-11T06:49:28.079Z,16.86
2022-09-11T06:50:28.004Z,16.90
2022-09-11T06:51:28.183Z,16.93
2022-09-11T06:52:28.639Z,16.97
2022-09-11T06:53:27.965Z,17.14
2022-09-11T06:54:27.958Z,17.20
2022-09-11T06:55:27.943Z,17.14
2022-09-11T06:56:27.932Z,17.22
2022-09-11T06:57:27.988Z,17.27
2022-09-11T06:58:27.913Z,17.27
2022-09-11T06:59:27.903Z,17.26
2022-09-11T07:00:27.888Z,17.38
2022-09-11T07:01:27.945Z,17.48
2022-09-11T07:02:32.332Z,17.45
2022-09-11T07:03:27.871Z,17.54
2022-09-11T07:04:27.841Z,17.59
2022-09-11T07:05:27.836Z,17.65
2022-09-11T07:06:27.831Z,17.68
2022-09-11T07:07:27.837Z,17.64
2022-09-11T07:08:27.836Z,17.67
2022-09-11T07:09:27.797Z,17.65
2022-09-11T07:10:27.801Z,17.71
2022-09-11T07:11:27.773Z,17.67
2022-09-11T07:12:27.763Z,17.63
2022-09-11T07:13:27.752Z,17.64
2022-09-11T07:14:27.755Z,17.63
2022-09-11T07:15:27.726Z,17.60
2022-09-11T07:16:27.786Z,17.59
2022-09-11T07:17:27.702Z,17.65
2022-09-11T07:18:27.689Z,17.68
2022-09-11T07:19:27.689Z,17.57
2022-09-11T07:20:27.688Z,17.56
2022-09-11T07:21:27.659Z,17.63
2022-09-11T07:22:27.702Z,17.64
2022-09-11T07:23:27.815Z,17.59
2022-09-11T07:24:27.640Z,17.63
2022-09-11T07:25:27.702Z,17.71
2022-09-11T07:26:27.602Z,17.70
2022-09-11T07:27:27.589Z,17.64
2022-09-11T07:28:27.575Z,17.68
2022-09-11T07:29:27.565Z,17.65
2022-09-11T07:30:27.620Z,17.76
2022-09-11T07:31:27.561Z,17.82
2022-09-11T07:32:27.551Z,18.01
2022-09-11T07:33:27.534Z,18.31
2022-09-11T07:34:27.516Z,18.77
2022-09-11T07:35:27.504Z,18.98
2022-09-11T07:36:27.505Z,19.08
2022-09-11T07:37:27.479Z,19.15
2022-09-11T07:38:27.673Z,19.56
2022-09-11T07:39:27.479Z,19.70
2022-09-11T07:40:27.476Z,20.04
2022-09-11T07:41:27.440Z,20.21
2022-09-11T07:42:27.421Z,20.69
2022-09-11T07:43:27.412Z,21.05
2022-09-11T07:44:27.470Z,21.39
2022-09-11T07:45:27.390Z,21.99
2022-09-11T07:46:27.398Z,22.22
2022-09-11T07:47:27.374Z,22.13
2022-09-11T07:48:27.375Z,21.96
2022-09-11T07:49:28.922Z,21.37
2022-09-11T07:50:27.334Z,20.99
2022-09-11T07:51:27.329Z,20.96
2022-09-11T07:52:27.318Z,20.90
2022-09-11T07:53:27.325Z,21.00
2022-09-11T07:54:27.290Z,20.95
2022-09-11T07:55:27.435Z,20.78
2022-09-11T07:56:27.314Z,20.69
2022-09-11T07:57:27.280Z,20.52
2022-09-11T07:58:27.247Z,20.66
2022-09-11T07:59:27.237Z,20.75
2022-09-11T08:00:27.223Z,21.03
2022-09-11T08:01:27.326Z,21.24
2022-09-11T08:02:27.243Z,21.20
2022-09-11T08:03:27.764Z,21.29
2022-09-11T08:04:27.183Z,21.48
2022-09-11T08:05:27.165Z,21.67
2022-09-11T08:06:27.377Z,22.28
2022-09-11T08:07:27.142Z,23.34
2022-09-11T08:08:27.149Z,23.77
2022-09-11T08:09:27.120Z,23.93
2022-09-11T08:10:28.219Z,24.24
2022-09-11T08:11:27.099Z,24.42
2022-09-11T08:12:27.167Z,25.14
2022-09-11T08:13:27.095Z,25.50
2022-09-11T08:14:27.068Z,25.44
2022-09-11T08:15:27.062Z,25.06
2022-09-11T08:16:27.147Z,24.76
2022-09-11T08:17:27.045Z,24.33
2022-09-11T08:18:27.022Z,24.05
2022-09-11T08:19:27.023Z,23.95
2022-09-11T08:20:27.019Z,23.74
2022-09-11T08:21:28.779Z,23.37
2022-09-11T08:22:27.012Z,22.96
2022-09-11T08:23:27.961Z,22.41
2022-09-11T08:24:26.966Z,22.32
2022-09-11T08:25:26.941Z,21.96
2022-09-11T08:26:26.961Z,21.79
2022-09-11T08:27:27.247Z,21.79
2022-09-11T08:28:26.933Z,21.92
2022-09-11T08:29:26.921Z,21.88
2022-09-11T08:30:26.939Z,21.67
2022-09-11T08:31:27.023Z,21.61
2022-09-11T08:32:26.881Z,21.39
2022-09-11T08:33:26.862Z,21.29
2022-09-11T08:34:26.847Z,21.29
2022-09-11T08:35:26.851Z,21.22
2022-09-11T08:36:26.914Z,21.24
2022-09-11T08:37:26.826Z,21.22
2022-09-11T08:38:26.816Z,21.20
2022-09-11T08:39:26.797Z,21.15
2022-09-11T08:40:26.790Z,21.20
2022-09-11T08:41:29.197Z,21.32
2022-09-11T08:42:26.759Z,21.33
2022-09-11T08:43:26.758Z,21.55
2022-09-11T08:44:26.947Z,21.52
2022-09-11T08:45:26.830Z,21.46
2022-09-11T08:46:26.791Z,21.33
2022-09-11T08:47:26.702Z,21.32
2022-09-11T08:48:26.693Z,21.36
2022-09-11T08:49:26.736Z,21.37
2022-09-11T08:50:26.700Z,21.32
2022-09-11T08:51:26.664Z,21.35
2022-09-11T08:52:26.661Z,21.43
2022-09-11T08:53:26.638Z,21.39
2022-09-11T08:54:26.670Z,21.29
2022-09-11T08:55:26.719Z,21.25
2022-09-11T08:56:26.623Z,21.29
2022-09-11T08:57:26.616Z,21.05
2022-09-11T08:58:26.583Z,20.88
2022-09-11T08:59:26.568Z,20.66
2022-09-11T09:00:26.604Z,20.55
2022-09-11T09:01:26.737Z,20.58
2022-09-11T09:02:26.577Z,20.63
2022-09-11T09:03:26.527Z,20.75
2022-09-11T09:04:26.818Z,20.80
2022-09-11T09:05:26.507Z,20.80
2022-09-11T09:06:26.498Z,20.82
2022-09-11T09:07:26.483Z,20.66
2022-09-11T09:08:26.486Z,20.60
2022-09-11T09:09:26.484Z,20.51
2022-09-11T09:10:26.451Z,20.48
2022-09-11T09:11:26.557Z,20.37
2022-09-11T09:12:26.428Z,20.36
2022-09-11T09:13:29.152Z,20.24
2022-09-11T09:14:27.051Z,20.10
2022-09-11T09:15:29.513Z,20.19
2022-09-11T09:16:26.575Z,20.03
2022-09-11T09:17:26.393Z,19.85
2022-09-11T09:18:26.368Z,19.71
2022-09-11T09:19:26.349Z,19.66
2022-09-11T09:20:26.349Z,19.69
2022-09-11T09:21:26.389Z,19.54
2022-09-11T09:22:26.325Z,19.47
2022-09-11T09:23:26.309Z,19.39
2022-09-11T09:24:26.318Z,19.58
2022-09-11T09:25:26.280Z,19.58
2022-09-11T09:26:26.370Z,19.71
2022-09-11T09:27:26.265Z,19.94
2022-09-11T09:28:26.314Z,20.13
2022-09-11T09:29:26.239Z,20.34
2022-09-11T09:30:26.230Z,20.59
2022-09-11T09:31:26.433Z,20.90
2022-09-11T09:32:26.225Z,20.99
2022-09-11T09:33:26.231Z,21.09
2022-09-11T09:34:26.184Z,21.21
2022-09-11T09:35:26.217Z,21.37
2022-09-11T09:36:26.183Z,22.18
2022-09-11T09:37:26.208Z,23.46
2022-09-11T09:38:27.105Z,23.65
2022-09-11T09:39:26.178Z,23.58
2022-09-11T09:40:28.724Z,23.46
2022-09-11T09:41:26.104Z,23.20
2022-09-11T09:42:26.097Z,22.99
2022-09-11T09:43:26.104Z,22.85
2022-09-11T09:44:26.078Z,22.83
2022-09-11T09:45:26.096Z,22.75
2022-09-11T09:46:26.109Z,22.63
2022-09-11T09:47:26.047Z,22.35
2022-09-11T09:48:26.583Z,22.28
2022-09-11T09:49:26.031Z,22.18
2022-09-11T09:50:26.016Z,22.04
2022-09-11T09:51:25.996Z,21.95
2022-09-11T09:52:25.988Z,21.98
2022-09-11T09:53:26.100Z,21.83
2022-09-11T09:54:26.490Z,21.77
2022-09-11T09:55:25.954Z,21.83
2022-09-11T09:56:25.959Z,21.73
2022-09-11T09:57:25.991Z,21.66
2022-09-11T09:58:25.924Z,21.43
2022-09-11T09:59:35.091Z,21.17
2022-09-11T10:00:25.902Z,20.97
2022-09-11T10:01:25.936Z,20.81
2022-09-11T10:02:25.904Z,20.70
2022-09-11T10:03:25.864Z,20.62
2022-09-11T10:04:25.874Z,20.59
2022-09-11T10:05:25.838Z,20.59
2022-09-11T10:06:25.870Z,20.59
2022-09-11T10:07:25.888Z,20.59
2022-09-11T10:08:26.496Z,20.70
2022-09-11T10:09:25.801Z,20.72
2022-09-11T10:10:25.784Z,20.96
2022-09-11T10:11:25.854Z,21.30
2022-09-11T10:12:25.772Z,21.52
2022-09-11T10:13:25.755Z,21.93
2022-09-11T10:14:49.933Z,22.13
2022-09-11T10:15:26.731Z,22.35
2022-09-11T10:16:25.726Z,22.65
2022-09-11T10:17:25.787Z,22.85
2022-09-11T10:18:25.712Z,23.37
2022-09-11T10:19:25.708Z,23.59
2022-09-11T10:20:25.757Z,23.28
2022-09-11T10:21:25.672Z,23.00
2022-09-11T10:22:25.657Z,22.96
2022-09-11T10:23:25.673Z,22.96
2022-09-11T10:24:25.711Z,23.34
2022-09-11T10:25:25.625Z,23.77
2022-09-11T10:26:25.771Z,24.23
2022-09-11T10:27:28.865Z,24.32
2022-09-11T10:28:25.591Z,24.81
2022-09-11T10:29:25.579Z,25.31
2022-09-11T10:30:25.585Z,25.81
2022-09-11T10:31:25.609Z,26.77
2022-09-11T10:32:29.063Z,27.58
2022-09-11T10:33:25.537Z,28.22
2022-09-11T10:34:25.527Z,29.19
2022-09-11T10:35:25.514Z,30.24
2022-09-11T10:36:25.543Z,31.47
2022-09-11T10:37:25.509Z,31.93
2022-09-11T10:38:25.479Z,32.90
2022-09-11T10:39:26.086Z,32.65
2022-09-11T10:40:25.463Z,32.31
2022-09-11T10:41:25.450Z,32.43
2022-09-11T10:42:26.207Z,31.49
2022-09-11T10:43:25.475Z,31.15
2022-09-11T10:44:25.425Z,30.32
2022-09-11T10:45:25.436Z,29.90
2022-09-11T10:46:27.857Z,29.53
2022-09-11T10:47:25.387Z,27.86
2022-09-11T10:48:25.418Z,26.83
2022-09-11T10:49:25.363Z,26.16
2022-09-11T10:50:25.360Z,25.84
2022-09-11T10:51:25.348Z,25.35
2022-09-11T10:52:36.149Z,24.99
2022-09-11T10:53:25.322Z,24.95
2022-09-11T10:54:25.315Z,24.38
2022-09-11T10:55:25.305Z,23.84
2022-09-11T10:56:25.288Z,23.71
2022-09-11T10:57:25.317Z,23.58
2022-09-11T10:58:25.268Z,23.23
2022-09-11T10:59:25.253Z,23.09
2022-09-11T11:00:25.367Z,22.98
2022-09-11T11:01:25.263Z,22.90
2022-09-11T11:02:25.357Z,22.87
2022-09-11T11:03:25.226Z,22.85
2022-09-11T11:04:25.202Z,22.55
2022-09-11T11:05:25.190Z,22.45
2022-09-11T11:06:25.181Z,22.47
2022-09-11T11:07:25.184Z,22.36
2022-09-11T11:08:25.175Z,22.36
2022-09-11T11:09:30.364Z,22.30
2022-09-11T11:10:26.142Z,22.14
2022-09-11T11:11:25.127Z,21.98
2022-09-11T11:12:25.135Z,21.80
2022-09-11T11:13:25.244Z,21.83
2022-09-11T11:14:25.092Z,21.82
2022-09-11T11:15:29.935Z,21.70
2022-09-11T11:16:26.100Z,21.70
2022-09-11T11:17:25.061Z,21.60
2022-09-11T11:18:25.047Z,21.62
2022-09-11T11:19:25.472Z,21.45
2022-09-11T11:20:25.024Z,21.43
2022-09-11T11:21:25.052Z,21.25
2022-09-11T11:22:25.017Z,21.02
2022-09-11T11:23:24.997Z,20.99
2022-09-11T11:24:25.033Z,20.99
2022-09-11T11:25:24.967Z,21.18
2022-09-11T11:26:24.961Z,21.17
2022-09-11T11:27:24.948Z,21.29
2022-09-11T11:28:24.946Z,22.48
2022-09-11T11:29:24.940Z,24.11
2022-09-11T11:30:24.922Z,24.88
2022-09-11T11:31:24.933Z,25.93
2022-09-11T11:32:24.917Z,26.97
2022-09-11T11:33:24.891Z,27.82
2022-09-11T11:34:24.872Z,28.52
2022-09-11T11:35:24.862Z,28.67
2022-09-11T11:36:25.075Z,29.27
2022-09-11T11:37:24.924Z,29.91
2022-09-11T11:38:24.829Z,30.30
2022-09-11T11:39:24.829Z,30.55
2022-09-11T11:40:24.827Z,30.81
2022-09-11T11:41:24.868Z,30.97
2022-09-11T11:42:24.804Z,31.18
2022-09-11T11:43:24.797Z,31.39
2022-09-11T11:44:29.576Z,31.58
2022-09-11T11:45:24.766Z,31.96
2022-09-11T11:46:24.746Z,32.33
2022-09-11T11:47:24.861Z,32.48
2022-09-11T11:48:24.734Z,32.65
2022-09-11T11:49:24.749Z,32.75
2022-09-11T11:50:27.398Z,32.78
2022-09-11T11:51:25.736Z,32.37
2022-09-11T11:52:24.690Z,31.42
2022-09-11T11:53:24.678Z,30.75
2022-09-11T11:54:24.666Z,30.02
2022-09-11T11:55:24.671Z,29.95
2022-09-11T11:56:24.674Z,30.25
2022-09-11T11:57:24.680Z,29.91
2022-09-11T11:58:24.673Z,29.84
2022-09-11T11:59:24.614Z,30.03
2022-09-11T12:00:24.620Z,30.19
2022-09-11T12:01:24.605Z,30.50
2022-09-11T12:02:24.586Z,30.66
2022-09-11T12:03:24.625Z,29.97
2022-09-11T12:04:24.837Z,29.53
2022-09-11T12:05:24.548Z,29.44
2022-09-11T12:06:24.571Z,29.16
2022-09-11T12:07:24.564Z,28.88
2022-09-11T12:08:24.616Z,28.69
2022-09-11T12:09:24.641Z,28.64
2022-09-11T12:10:24.596Z,28.45
2022-09-11T12:11:25.880Z,28.29
2022-09-11T12:12:24.607Z,28.14
2022-09-11T12:13:24.628Z,28.01
2022-09-11T12:14:24.458Z,28.01
2022-09-11T12:15:24.686Z,28.14
2022-09-11T12:16:25.149Z,28.47
2022-09-11T12:17:24.426Z,28.59
2022-09-11T12:18:24.413Z,28.67
2022-09-11T12:19:24.403Z,28.52
2022-09-11T12:20:24.448Z,28.17
2022-09-11T12:21:24.396Z,28.05
2022-09-11T12:22:24.400Z,27.77
2022-09-11T12:23:24.362Z,27.64
2022-09-11T12:24:24.352Z,27.63
2022-09-11T12:25:24.520Z,27.42
2022-09-11T12:26:24.351Z,27.18
2022-09-11T12:27:25.121Z,27.07
2022-09-11T12:28:24.330Z,26.95
2022-09-11T12:29:24.319Z,26.89
2022-09-11T12:30:24.289Z,26.65
2022-09-11T12:31:24.330Z,26.40
2022-09-11T12:32:24.270Z,26.33
2022-09-11T12:33:24.260Z,26.05
2022-09-11T12:34:24.262Z,25.77
2022-09-11T12:35:24.257Z,25.59
2022-09-11T12:36:24.224Z,25.35
2022-09-11T12:37:24.216Z,25.07
2022-09-11T12:38:24.204Z,24.84
2022-09-11T12:39:24.203Z,24.53
2022-09-11T12:40:24.175Z,24.29
2022-09-11T12:41:24.201Z,24.24
2022-09-11T12:42:24.230Z,24.17
2022-09-11T12:43:24.146Z,23.99
2022-09-11T12:44:24.279Z,23.80
2022-09-11T12:45:24.137Z,23.65
2022-09-11T12:46:24.112Z,23.68
2022-09-11T12:47:24.123Z,23.54
2022-09-11T12:48:24.152Z,23.47
2022-09-11T12:49:24.082Z,23.31
2022-09-11T12:50:24.076Z,23.31
2022-09-11T12:51:24.063Z,23.21
2022-09-11T12:52:24.095Z,23.31
2022-09-11T12:53:24.064Z,23.17